Time;durP1;ratioP1;P1;durP2;ratioP2;P2;SDS_P1;SDS_P2;PMS_P1;PMS_P2;Temp;Humidity;BMP_temperature;BMP_pressure;BME280_temperature;BME280_humidity;BME280_pressure;Samples;Min_cycle;Max_cycle;Signal;HPM_P1;HPM_P2
2022/08/20 00:01:07;;;;;;;18.13;10.70;;;18.80;99.90;;;;;;5155626;27;20428;-84
2022/08/20 00:03:51;;;;;;;13.93;9.48;;;18.70;99.90;;;;;;5138974;27;20057;-84
2022/08/20 00:06:36;;;;;;;19.05;9.35;;;;;;;;;;5139161;27;20087;-85
2022/08/20 00:09:20;;;;;;;14.02;9.48;;;18.80;99.90;;;;;;5139677;27;20050;-84
2022/08/20 00:12:05;;;;;;;16.70;9.63;;;18.60;99.90;;;;;;5125087;27;20083;-84
2022/08/20 00:14:49;;;;;;;13.98;9.50;;;18.70;99.90;;;;;;5154818;27;20053;-83
2022/08/20 00:17:36;;;;;;;16.15;9.90;;;19.10;99.90;;;;;;5125700;27;20084;-83
2022/08/20 00:20:22;;;;;;;18.65;10.10;;;19.40;99.90;;;;;;5155109;27;20034;-84
2022/08/20 00:23:07;;;;;;;17.48;10.63;;;18.80;99.90;;;;;;5154852;27;20106;-84
2022/08/20 00:25:52;;;;;;;16.08;9.20;;;18.80;99.90;;;;;;5154608;27;20088;-83
2022/08/20 00:28:37;;;;;;;14.30;9.50;;;18.60;99.90;;;;;;5121363;27;20092;-88
2022/08/20 00:31:23;;;;;;;19.23;9.98;;;18.60;99.90;;;;;;5151845;27;20091;-84
2022/08/20 00:34:07;;;;;;;14.70;9.70;;;18.50;99.90;;;;;;5139285;27;20054;-84
2022/08/20 00:36:51;;;;;;;16.02;9.52;;;18.50;99.90;;;;;;5154422;27;20050;-84
2022/08/20 00:39:35;;;;;;;15.10;9.77;;;18.40;99.90;;;;;;5154595;27;20038;-84
2022/08/20 00:42:19;;;;;;;17.42;9.80;;;18.40;99.90;;;;;;5154897;27;20061;-83
2022/08/20 00:45:04;;;;;;;16.98;9.63;;;18.50;99.90;;;;;;5138690;27;20550;-84
2022/08/20 00:47:48;;;;;;;16.38;9.57;;;18.40;99.90;;;;;;5153965;27;20087;-84
2022/08/20 00:50:36;;;;;;;15.32;10.18;;;18.40;99.90;;;;;;5139017;27;20033;-83
2022/08/20 00:53:24;;;;;;;15.70;8.85;;;18.40;99.90;;;;;;5153940;27;20038;-83
2022/08/20 00:56:11;;;;;;;18.67;9.88;;;18.30;99.90;;;;;;5138521;27;20044;-84
2022/08/20 00:58:55;;;;;;;19.48;9.57;;;18.40;99.90;;;;;;5127501;27;20086;-84
2022/08/20 01:01:42;;;;;;;17.05;10.10;;;18.30;99.90;;;;;;5154100;27;20513;-87
2022/08/20 01:04:30;;;;;;;13.70;9.23;;;18.30;99.90;;;;;;5154020;27;20492;-84
2022/08/20 01:07:14;;;;;;;15.07;9.85;;;18.10;99.90;;;;;;5154170;27;20041;-84
2022/08/20 01:10:00;;;;;;;14.35;9.02;;;18.10;99.90;;;;;;5153684;27;20034;-84
2022/08/20 01:12:46;;;;;;;17.52;10.10;;;18.30;99.90;;;;;;5141508;27;20402;-85
2022/08/20 01:15:31;;;;;;;17.77;10.65;;;18.40;99.90;;;;;;5153885;27;20090;-84
2022/08/20 01:18:20;;;;;;;14.43;9.25;;;18.00;99.90;;;;;;5154031;27;20042;-84
2022/08/20 01:21:06;;;;;;;13.65;10.38;;;18.10;99.90;;;;;;5153497;27;20036;-84
2022/08/20 01:23:54;;;;;;;17.80;9.90;;;18.10;99.90;;;;;;5123317;27;20091;-84
2022/08/20 01:26:42;;;;;;;13.73;9.48;;;18.00;99.90;;;;;;5154080;27;20485;-84
2022/08/20 01:29:34;;;;;;;14.95;9.93;;;18.10;99.90;;;;;;5153673;27;20030;-84
2022/08/20 01:32:18;;;;;;;18.92;9.35;;;17.80;99.90;;;;;;5137972;27;20072;-84
2022/08/20 01:35:03;;;;;;;20.25;10.32;;;17.70;99.90;;;;;;5153336;27;20073;-84
2022/08/20 01:37:47;;;;;;;15.73;9.95;;;;;;;;;;5153356;27;20485;-87
2022/08/20 01:40:46;;;;;;;18.92;10.38;;;18.10;99.90;;;;;;5153986;27;20038;-84
2022/08/20 01:43:30;;;;;;;20.25;10.30;;;17.60;99.90;;;;;;5153508;27;20048;-84
2022/08/20 01:46:16;;;;;;;13.50;8.25;;;17.50;99.90;;;;;;5137892;27;20126;-84
2022/08/20 01:49:16;;;;;;;16.05;9.77;;;17.70;99.90;;;;;;5137652;27;20166;-84
2022/08/20 01:52:07;;;;;;;17.75;10.93;;;18.00;99.90;;;;;;5142330;27;20030;-84
2022/08/20 01:54:51;;;;;;;20.08;11.18;;;17.60;99.90;;;;;;5153030;27;20087;-84
2022/08/20 01:57:38;;;;;;;19.02;10.48;;;17.70;99.90;;;;;;5153670;27;20088;-84
2022/08/20 02:00:23;;;;;;;21.90;11.23;;;17.50;99.90;;;;;;5153645;27;20041;-84
2022/08/20 02:03:08;;;;;;;24.55;11.32;;;17.70;99.90;;;;;;5152809;27;20598;-84
2022/08/20 02:05:52;;;;;;;20.63;10.20;;;17.90;99.90;;;;;;5155137;27;20114;-85
2022/08/20 02:08:37;;;;;;;16.98;9.82;;;;;;;;;;5157632;27;20086;-83
2022/08/20 02:11:22;;;;;;;22.33;11.15;;;18.30;99.90;;;;;;5141862;27;20086;-84
2022/08/20 02:14:09;;;;;;;14.65;9.35;;;17.60;99.90;;;;;;5157164;27;20091;-84
2022/08/20 02:16:54;;;;;;;17.63;10.43;;;17.60;99.90;;;;;;5153812;27;20060;-85
2022/08/20 02:19:52;;;;;;;18.35;10.73;;;17.50;99.90;;;;;;5133282;27;20058;-84
2022/08/20 02:22:51;;;;;;;14.38;10.23;;;17.50;99.90;;;;;;5157657;27;20030;-84
2022/08/20 02:25:38;;;;;;;20.00;10.73;;;17.60;99.90;;;;;;5157305;27;20086;-83
2022/08/20 02:28:23;;;;;;;17.02;10.63;;;;;;;;;;5157573;27;20090;-84
2022/08/20 02:31:08;;;;;;;18.83;11.18;;;17.20;99.90;;;;;;5141159;27;20037;-84
2022/08/20 02:33:52;;;;;;;18.38;10.13;;;17.60;99.90;;;;;;5141702;27;20046;-84
2022/08/20 02:36:37;;;;;;;14.68;9.75;;;17.70;99.90;;;;;;5141519;27;20037;-83
2022/08/20 02:39:21;;;;;;;16.38;9.48;;;17.50;99.90;;;;;;5157209;27;20496;-83
2022/08/20 02:42:06;;;;;;;16.85;10.23;;;17.70;99.90;;;;;;5140903;27;20046;-84
2022/08/20 02:44:50;;;;;;;20.52;10.18;;;17.50;99.90;;;;;;5156743;27;20065;-84
2022/08/20 02:47:34;;;;;;;20.00;9.88;;;18.20;99.90;;;;;;5156957;27;20094;-84
2022/08/20 02:50:20;;;;;;;16.85;9.82;;;17.30;99.90;;;;;;5125978;27;20042;-84
2022/08/20 02:53:04;;;;;;;22.27;9.88;;;17.40;99.90;;;;;;5140700;27;20065;-85
2022/08/20 02:55:49;;;;;;;17.75;9.73;;;17.60;99.90;;;;;;5148487;27;20038;-84
2022/08/20 02:58:34;;;;;;;22.25;9.63;;;17.20;99.90;;;;;;5156812;27;20030;-84
2022/08/20 03:01:18;;;;;;;18.60;9.63;;;;;;;;;;5140202;27;20099;-85
2022/08/20 03:04:03;;;;;;;17.33;9.50;;;17.00;99.90;;;;;;5126175;27;20587;-84
2022/08/20 03:06:47;;;;;;;19.95;9.02;;;17.20;99.90;;;;;;5156642;27;20102;-84
2022/08/20 03:09:31;;;;;;;18.90;9.05;;;16.90;99.90;;;;;;5140949;27;20073;-84
2022/08/20 03:12:15;;;;;;;17.63;9.45;;;17.50;99.90;;;;;;5156112;27;20114;-83
2022/08/20 03:15:00;;;;;;;15.38;9.30;;;;;;;;;;5155974;27;20539;-87
2022/08/20 03:17:45;;;;;;;12.88;8.43;;;17.20;99.90;;;;;;5140372;27;20422;-83
2022/08/20 03:20:30;;;;;;;17.55;9.43;;;17.10;99.90;;;;;;5156248;27;20394;-84
2022/08/20 03:23:15;;;;;;;16.45;10.13;;;17.10;99.90;;;;;;5140098;27;20038;-84
2022/08/20 03:26:00;;;;;;;20.08;10.35;;;;;;;;;;5156451;27;20448;-87
2022/08/20 03:28:44;;;;;;;20.17;10.10;;;16.90;99.90;;;;;;5140652;27;20041;-83
2022/08/20 03:31:28;;;;;;;18.73;9.35;;;17.10;99.90;;;;;;5140571;27;20042;-83
2022/08/20 03:34:13;;;;;;;12.68;9.18;;;17.10;99.90;;;;;;5155324;27;20091;-84
2022/08/20 03:36:57;;;;;;;17.23;8.80;;;;;;;;;;5140270;27;20507;-86
2022/08/20 03:39:41;;;;;;;20.08;9.48;;;17.10;99.90;;;;;;5140654;27;20083;-84
2022/08/20 03:42:26;;;;;;;19.83;8.57;;;17.00;99.90;;;;;;5139612;27;20073;-84
2022/08/20 03:45:12;;;;;;;17.33;9.90;;;17.70;99.90;;;;;;5155446;27;20103;-84
2022/08/20 03:47:56;;;;;;;17.25;8.52;;;17.20;99.90;;;;;;5126101;27;20091;-83
2022/08/20 03:50:42;;;;;;;14.38;8.45;;;17.00;99.90;;;;;;5120531;27;20536;-83
2022/08/20 03:53:30;;;;;;;16.90;8.30;;;16.80;99.90;;;;;;5155140;27;20079;-84
2022/08/20 03:56:16;;;;;;;19.85;8.25;;;17.20;99.90;;;;;;5155018;27;20167;-83
2022/08/20 03:59:00;;;;;;;16.23;8.38;;;17.00;99.90;;;;;;5140149;27;20091;-83
2022/08/20 04:01:44;;;;;;;11.82;7.90;;;16.80;99.90;;;;;;5139974;27;20267;-84
2022/08/20 04:04:28;;;;;;;16.95;8.05;;;17.10;99.90;;;;;;5154661;27;20394;-84
2022/08/20 04:07:19;;;;;;;12.30;7.28;;;16.80;99.90;;;;;;5139437;27;20042;-84
2022/08/20 04:10:08;;;;;;;14.57;7.35;;;17.00;99.90;;;;;;5155159;27;20079;-84
2022/08/20 04:12:52;;;;;;;20.75;8.48;;;17.10;99.90;;;;;;5155429;27;20418;-84
2022/08/20 04:15:37;;;;;;;17.15;7.65;;;17.30;99.90;;;;;;5141500;27;20132;-84
2022/08/20 04:18:24;;;;;;;13.88;7.18;;;17.00;99.90;;;;;;5154514;27;20387;-83
2022/08/20 04:21:09;;;;;;;17.38;7.63;;;;;;;;;;5139354;27;20386;-87
2022/08/20 04:23:54;;;;;;;13.25;7.13;;;16.90;99.90;;;;;;5155015;27;20077;-83
2022/08/20 04:26:38;;;;;;;18.75;7.30;;;17.00;99.90;;;;;;5155109;27;20073;-83
2022/08/20 04:29:23;;;;;;;13.80;6.30;;;16.90;99.90;;;;;;5153509;27;20041;-83
2022/08/20 04:32:07;;;;;;;12.32;6.38;;;17.00;99.90;;;;;;5139190;27;20439;-83
2022/08/20 04:34:52;;;;;;;17.55;6.32;;;17.50;99.90;;;;;;5139031;27;20041;-83
2022/08/20 04:37:40;;;;;;;12.02;6.05;;;17.00;99.90;;;;;;5139426;27;20042;-84
2022/08/20 04:43:34;;;;;;;9.82;6.40;;;16.80;99.90;;;;;;5153847;27;20493;-83
2022/08/20 04:46:20;;;;;;;13.88;6.30;;;16.80;99.90;;;;;;5154196;27;20530;-83
2022/08/20 04:49:05;;;;;;;12.82;5.50;;;16.60;99.90;;;;;;5154769;27;20402;-83
2022/08/20 04:51:49;;;;;;;14.18;7.22;;;16.70;99.90;;;;;;5154329;27;20535;-83
2022/08/20 04:54:34;;;;;;;14.05;6.15;;;;;;;;;;5138351;27;20050;-83
2022/08/20 04:57:18;;;;;;;10.63;6.00;;;17.40;99.90;;;;;;5138120;27;20418;-83
2022/08/20 05:00:13;;;;;;;10.95;5.00;;;16.70;99.90;;;;;;5138761;27;20042;-84
2022/08/20 05:02:58;;;;;;;11.98;5.00;;;16.60;99.90;;;;;;5143742;27;20535;-83
2022/08/20 05:05:46;;;;;;;17.27;6.25;;;16.90;99.90;;;;;;5117306;27;20088;-83
2022/08/20 05:08:31;;;;;;;14.55;5.53;;;16.60;99.90;;;;;;5151459;27;20042;-83
2022/08/20 05:11:15;;;;;;;11.73;5.43;;;;;;;;;;5154022;27;20058;-87
2022/08/20 05:14:00;;;;;;;10.38;4.90;;;;;;;;;;5154514;27;20104;-83
2022/08/20 05:16:44;;;;;;;10.05;5.05;;;16.60;99.90;;;;;;5154074;27;20073;-84
2022/08/20 05:19:28;;;;;;;12.27;5.35;;;16.50;99.90;;;;;;5147227;27;20038;-83
2022/08/20 05:22:12;;;;;;;12.13;5.72;;;16.70;99.90;;;;;;5112021;27;20406;-84
2022/08/20 05:24:58;;;;;;;17.15;5.10;;;16.50;99.90;;;;;;5138188;27;20046;-83
2022/08/20 05:27:42;;;;;;;15.32;5.53;;;16.20;99.90;;;;;;5138431;27;20042;-84
2022/08/20 05:30:35;;;;;;;16.95;5.78;;;16.50;99.90;;;;;;5153349;27;20111;-83
2022/08/20 05:33:21;;;;;;;11.35;5.68;;;16.50;99.90;;;;;;5138590;27;20446;-88
2022/08/20 05:36:06;;;;;;;16.15;5.50;;;16.40;99.90;;;;;;5154082;27;20041;-83
2022/08/20 05:38:52;;;;;;;12.68;5.60;;;16.00;99.90;;;;;;5123288;27;20038;-83
2022/08/20 05:41:38;;;;;;;12.70;5.43;;;16.20;99.90;;;;;;5137737;27;20087;-84
2022/08/20 05:44:22;;;;;;;14.93;5.97;;;16.30;99.90;;;;;;5131115;28;20118;-85
2022/08/20 05:47:09;;;;;;;17.17;6.28;;;16.10;99.90;;;;;;5132961;28;20501;-84
2022/08/20 05:49:53;;;;;;;15.05;5.43;;;16.40;99.90;;;;;;5133220;28;20042;-83
2022/08/20 05:52:38;;;;;;;11.20;5.72;;;16.20;99.90;;;;;;5117664;28;20446;-84
2022/08/20 05:55:23;;;;;;;12.80;5.60;;;;;;;;;;5118096;28;20124;-87
2022/08/20 05:58:14;;;;;;;13.95;6.10;;;16.50;99.90;;;;;;5117871;28;20500;-84
2022/08/20 06:00:59;;;;;;;12.23;5.70;;;16.40;99.90;;;;;;5132938;28;20046;-86
2022/08/20 06:06:47;;;;;;;12.55;5.40;;;16.60;99.90;;;;;;5131451;28;20073;-85
2022/08/20 06:09:32;;;;;;;14.13;6.85;;;17.40;99.90;;;;;;5132363;28;20130;-85
2022/08/20 06:12:17;;;;;;;12.23;5.85;;;17.00;99.90;;;;;;5118356;28;20554;-86
2022/08/20 06:15:01;;;;;;;11.05;5.65;;;16.70;99.90;;;;;;5117271;28;20176;-86
2022/08/20 06:17:45;;;;;;;13.63;6.22;;;16.80;99.90;;;;;;5132266;28;20043;-85
2022/08/20 06:20:29;;;;;;;13.05;5.22;;;17.10;99.90;;;;;;5131032;28;20080;-86
2022/08/20 06:23:13;;;;;;;11.98;5.13;;;17.50;99.90;;;;;;5132332;28;20065;-85
2022/08/20 06:25:58;;;;;;;10.40;3.85;;;17.30;99.90;;;;;;5131042;28;20100;-85
2022/08/20 06:28:42;;;;;;;10.38;3.88;;;17.30;99.90;;;;;;5130514;28;20033;-85
2022/08/20 06:31:27;;;;;;;11.27;3.55;;;;;;;;;;5124976;28;20497;-87
2022/08/20 06:34:12;;;;;;;10.95;3.28;;;;;;;;;;5129830;27;20062;-87
2022/08/20 06:36:57;;;;;;;7.75;2.60;;;17.70;99.90;;;;;;5131192;28;20038;-85
2022/08/20 06:39:42;;;;;;;8.43;3.03;;;17.90;99.90;;;;;;5129095;28;20035;-83
2022/08/20 06:42:27;;;;;;;12.25;3.35;;;;;;;;;;5130831;28;20117;-85
2022/08/20 06:45:18;;;;;;;10.18;3.30;;;18.60;99.90;;;;;;5131281;27;20115;-83
2022/08/20 06:48:07;;;;;;;11.90;3.67;;;17.90;99.90;;;;;;5132239;28;20034;-82
2022/08/20 06:50:52;;;;;;;10.98;3.63;;;17.80;99.90;;;;;;5131891;27;20058;-82
2022/08/20 06:53:36;;;;;;;13.40;3.70;;;18.00;99.90;;;;;;5135652;27;20045;-83
2022/08/20 06:56:20;;;;;;;11.25;3.17;;;17.90;99.90;;;;;;5134952;27;20038;-84
2022/08/20 06:59:04;;;;;;;11.98;2.97;;;18.30;99.90;;;;;;5124244;27;20395;-85
2022/08/20 07:01:48;;;;;;;14.02;3.00;;;18.30;99.90;;;;;;5114923;27;20116;-84
2022/08/20 07:04:32;;;;;;;10.07;3.28;;;18.60;99.90;;;;;;5131150;27;20042;-86
2022/08/20 07:07:18;;;;;;;10.82;3.10;;;18.50;99.90;;;;;;5107987;27;20042;-84
2022/08/20 07:10:09;;;;;;;10.25;2.63;;;19.20;99.90;;;;;;5135824;27;20539;-84
2022/08/20 07:12:53;;;;;;;9.35;3.03;;;19.20;99.90;;;;;;5135374;27;20088;-85
2022/08/20 07:15:38;;;;;;;7.78;2.90;;;19.00;99.90;;;;;;5134306;27;20086;-86
2022/08/20 07:18:22;;;;;;;8.50;2.58;;;19.40;99.90;;;;;;5135672;27;20062;-84
2022/08/20 07:21:07;;;;;;;5.32;1.80;;;20.40;99.90;;;;;;5134740;27;20038;-83
2022/08/20 07:23:51;;;;;;;6.97;2.30;;;21.00;99.90;;;;;;5126266;27;20390;-82
2022/08/20 07:26:36;;;;;;;10.57;3.08;;;21.70;99.90;;;;;;5134056;27;20101;-85
2022/08/20 07:29:20;;;;;;;7.85;2.25;;;21.80;99.90;;;;;;5134485;27;20037;-84
2022/08/20 07:32:49;;;;;;;10.18;2.40;;;21.30;99.90;;;;;;5135165;27;20407;-85
2022/08/20 07:35:13;;;;;;;9.25;2.10;;;20.80;99.90;;;;;;5131114;27;20046;-85
2022/08/20 07:37:58;;;;;;;9.63;2.17;;;20.40;99.90;;;;;;5122910;27;20502;-84
2022/08/20 07:40:43;;;;;;;7.40;2.05;;;20.50;99.90;;;;;;5131466;27;20544;-85
2022/08/20 07:43:29;;;;;;;8.15;2.47;;;20.70;99.90;;;;;;5125476;27;20042;-85
2022/08/20 07:46:16;;;;;;;9.15;2.20;;;20.70;99.90;;;;;;5132591;27;20050;-86
2022/08/20 07:49:04;;;;;;;7.68;1.90;;;21.10;99.90;;;;;;5129985;27;20508;-85
2022/08/20 07:51:48;;;;;;;7.03;1.70;;;21.60;99.90;;;;;;5127037;27;20051;-85
2022/08/20 07:54:34;;;;;;;6.85;1.70;;;22.50;99.90;;;;;;5134861;27;20494;-85
2022/08/20 07:57:19;;;;;;;10.13;2.10;;;22.10;99.90;;;;;;5125712;27;20076;-85
2022/08/20 08:00:08;;;;;;;7.18;1.90;;;22.90;99.90;;;;;;5133647;27;20058;-86
2022/08/20 08:02:52;;;;;;;5.32;1.27;;;24.20;99.90;;;;;;5134306;27;20429;-86
2022/08/20 08:05:40;;;;;;;5.18;1.58;;;23.90;99.90;;;;;;5134334;27;20161;-86
2022/08/20 08:08:27;;;;;;;7.60;1.90;;;25.90;99.90;;;;;;5123151;27;20038;-84
2022/08/20 08:11:12;;;;;;;7.07;1.73;;;;;;;;;;5119019;27;20064;-85
2022/08/20 08:13:58;;;;;;;8.35;1.95;;;26.10;99.30;;;;;;5129988;27;20502;-84
2022/08/20 08:16:44;;;;;;;6.07;1.60;;;26.10;96.90;;;;;;5132729;27;20049;-87
2022/08/20 08:19:35;;;;;;;6.80;1.60;;;26.50;97.00;;;;;;5133509;27;20130;-85
2022/08/20 08:22:19;;;;;;;5.13;1.30;;;25.40;94.90;;;;;;5133020;27;20110;-85
2022/08/20 08:25:04;;;;;;;5.57;1.30;;;25.70;94.80;;;;;;5132836;27;20120;-84
2022/08/20 08:27:49;;;;;;;5.47;1.65;;;25.50;95.40;;;;;;5132994;27;20072;-83
2022/08/20 08:30:33;;;;;;;4.60;1.40;;;25.10;94.90;;;;;;5131644;27;20050;-84
2022/08/20 08:33:32;;;;;;;7.22;2.05;;;24.40;95.80;;;;;;5134058;27;20087;-84
2022/08/20 08:36:16;;;;;;;6.15;1.38;;;24.00;96.30;;;;;;5133305;27;20132;-84
2022/08/20 08:39:00;;;;;;;6.88;1.35;;;24.10;95.90;;;;;;5132322;27;20057;-84
2022/08/20 08:41:48;;;;;;;4.88;1.50;;;23.60;96.30;;;;;;5133687;27;20050;-88
2022/08/20 08:44:40;;;;;;;4.60;1.23;;;22.90;98.70;;;;;;5132152;27;20053;-85
2022/08/20 08:47:28;;;;;;;6.65;1.35;;;23.50;97.40;;;;;;5132346;27;20026;-85
2022/08/20 08:50:22;;;;;;;5.30;1.75;;;23.50;97.60;;;;;;5133915;27;20038;-89
2022/08/20 08:53:08;;;;;;;8.80;2.25;;;;;;;;;;5113505;28;20088;-85
2022/08/20 08:55:52;;;;;;;8.60;1.75;;;23.70;98.40;;;;;;5131004;27;20076;-83
2022/08/20 08:58:36;;;;;;;7.80;1.73;;;23.60;97.00;;;;;;5129910;27;20038;-84
2022/08/20 09:01:23;;;;;;;6.63;1.30;;;23.70;96.80;;;;;;5126583;27;20085;-82
2022/08/20 09:04:08;;;;;;;5.53;1.55;;;23.70;94.60;;;;;;5129607;27;20278;-84
2022/08/20 09:06:53;;;;;;;7.35;1.90;;;;;;;;;;5130738;27;20105;-83
2022/08/20 09:09:40;;;;;;;5.20;1.60;;;23.60;95.90;;;;;;5133324;27;20493;-84
2022/08/20 09:12:27;;;;;;;5.80;2.08;;;23.80;96.30;;;;;;5128705;27;20099;-84
2022/08/20 09:15:12;;;;;;;7.80;1.73;;;23.80;95.70;;;;;;5132095;27;20042;-84
2022/08/20 09:17:56;;;;;;;7.63;1.75;;;23.60;93.50;;;;;;5123649;27;20088;-84
2022/08/20 09:20:40;;;;;;;7.95;1.95;;;23.50;93.60;;;;;;5129393;27;20037;-84
2022/08/20 09:23:24;;;;;;;7.07;1.50;;;23.80;94.00;;;;;;5133176;27;20042;-83
2022/08/20 09:26:09;;;;;;;7.72;1.58;;;23.70;92.30;;;;;;5133199;27;20108;-84
2022/08/20 09:28:53;;;;;;;7.60;1.40;;;23.60;93.40;;;;;;5132981;27;20159;-83
2022/08/20 09:31:38;;;;;;;4.72;1.60;;;;;;;;;;5104291;28;20061;-83
2022/08/20 09:34:22;;;;;;;9.40;1.85;;;23.50;94.80;;;;;;5130195;27;20080;-84
2022/08/20 09:37:07;;;;;;;8.30;1.70;;;;;;;;;;5129771;27;20485;-83
2022/08/20 09:39:51;;;;;;;4.43;1.20;;;23.70;93.70;;;;;;5132046;27;20030;-94
2022/08/20 09:42:37;;;;;;;7.32;1.77;;;23.70;92.60;;;;;;5133534;27;20109;-83
2022/08/20 09:45:21;;;;;;;5.15;1.50;;;24.00;92.50;;;;;;5149550;27;20115;-85
2022/08/20 09:48:06;;;;;;;6.93;1.48;;;23.70;92.00;;;;;;5137868;27;20099;-85
2022/08/20 09:50:50;;;;;;;8.98;2.45;;;23.70;92.70;;;;;;5154071;27;20406;-84
2022/08/20 09:53:34;;;;;;;9.45;2.92;;;23.60;92.70;;;;;;5125637;27;20095;-85
2022/08/20 09:56:18;;;;;;;5.32;1.40;;;24.10;91.90;;;;;;5127429;27;20034;-84
2022/08/20 09:59:03;;;;;;;4.20;1.52;;;24.30;91.10;;;;;;5138054;27;20065;-82
2022/08/20 10:01:47;;;;;;;7.57;1.92;;;;;;;;;;5122502;27;20079;-83
2022/08/20 10:04:31;;;;;;;7.35;1.73;;;23.40;91.60;;;;;;5150691;27;20100;-84
2022/08/20 10:07:15;;;;;;;6.22;1.48;;;23.60;91.80;;;;;;5140781;27;20053;-84
2022/08/20 10:10:00;;;;;;;5.50;1.40;;;23.60;90.70;;;;;;5123216;27;20045;-84
2022/08/20 10:12:45;;;;;;;4.38;1.33;;;23.50;90.20;;;;;;5154041;27;20201;-84
2022/08/20 10:15:30;;;;;;;6.15;1.50;;;23.60;90.20;;;;;;5138072;27;20405;-83
2022/08/20 10:18:14;;;;;;;5.85;1.45;;;23.40;90.80;;;;;;5137702;27;20073;-83
2022/08/20 10:20:58;;;;;;;3.78;1.50;;;23.40;91.20;;;;;;5126054;27;20033;-84
2022/08/20 10:23:44;;;;;;;6.80;1.70;;;;;;;;;;5134880;27;20042;-83
2022/08/20 10:26:28;;;;;;;8.02;1.83;;;23.40;90.10;;;;;;5131261;27;20118;-83
2022/08/20 10:29:12;;;;;;;5.53;1.35;;;23.40;90.50;;;;;;5141796;27;20538;-84
2022/08/20 10:31:57;;;;;;;2.95;1.20;;;;;;;;;;5141836;27;20046;-84
2022/08/20 10:34:43;;;;;;;6.72;1.45;;;24.00;90.20;;;;;;5147903;27;20077;-83
2022/08/20 10:37:27;;;;;;;5.45;1.50;;;;;;;;;;5139995;27;20038;-84
2022/08/20 10:40:14;;;;;;;5.53;1.45;;;24.80;86.40;;;;;;5157048;27;20112;-84
2022/08/20 10:42:58;;;;;;;9.30;1.90;;;25.00;87.90;;;;;;5157543;27;20083;-83
2022/08/20 10:45:43;;;;;;;7.13;1.50;;;;;;;;;;5141749;27;20057;-83
2022/08/20 10:48:28;;;;;;;5.95;2.33;;;;;;;;;;5141590;27;20109;-83
2022/08/20 10:51:12;;;;;;;10.00;2.00;;;25.00;87.90;;;;;;5156964;27;20498;-82
2022/08/20 10:53:56;;;;;;;10.43;1.73;;;;;;;;;;5157479;27;20042;-83
2022/08/20 10:56:41;;;;;;;7.18;1.98;;;;;;;;;;5145297;27;20516;-83
2022/08/20 10:59:25;;;;;;;8.07;1.60;;;24.80;83.40;;;;;;5126846;27;20126;-83
2022/08/20 11:02:10;;;;;;;8.30;1.83;;;;;;;;;;5141353;27;20485;-82
2022/08/20 11:04:56;;;;;;;5.13;1.60;;;;;;;;;;5141264;27;20083;-83
2022/08/20 11:07:42;;;;;;;7.10;1.60;;;25.50;80.30;;;;;;5141577;27;20049;-84
2022/08/20 11:10:28;;;;;;;6.57;1.88;;;25.40;81.40;;;;;;5140913;27;20026;-83
2022/08/20 11:13:12;;;;;;;7.28;1.60;;;25.10;82.20;;;;;;5156465;27;20034;-84
2022/08/20 11:15:56;;;;;;;7.07;1.50;;;24.90;82.30;;;;;;5156951;27;20504;-85
2022/08/20 11:18:40;;;;;;;7.50;2.28;;;24.90;81.90;;;;;;5156773;27;20096;-83
2022/08/20 11:21:25;;;;;;;6.10;1.50;;;;;;;;;;5140809;27;20538;-83
2022/08/20 11:24:09;;;;;;;8.73;1.40;;;25.70;78.30;;;;;;5135506;27;20050;-84
2022/08/20 11:26:53;;;;;;;4.95;1.27;;;25.60;76.20;;;;;;5151780;27;20042;-85
2022/08/20 11:29:38;;;;;;;6.20;1.92;;;;;;;;;;5156693;27;20046;-84
2022/08/20 11:32:23;;;;;;;8.43;1.88;;;25.50;79.00;;;;;;5140194;27;20061;-84
2022/08/20 11:35:08;;;;;;;7.63;1.90;;;25.70;77.50;;;;;;5140432;27;20038;-84
2022/08/20 11:37:54;;;;;;;7.50;1.83;;;25.70;76.70;;;;;;5148516;27;20038;-83
2022/08/20 11:40:39;;;;;;;7.43;1.92;;;;;;;;;;5136903;27;20045;-84
2022/08/20 11:43:23;;;;;;;4.45;1.58;;;25.30;76.60;;;;;;5156181;27;20075;-83
2022/08/20 11:46:08;;;;;;;7.32;1.48;;;;;;;;;;5155998;27;20546;-89
2022/08/20 11:48:52;;;;;;;7.90;1.80;;;;;;;;;;5140645;27;20038;-84
2022/08/20 11:51:37;;;;;;;4.82;1.67;;;;;;;;;;5156247;27;20033;-83
2022/08/20 11:54:21;;;;;;;6.43;2.25;;;;;;;;;;5125690;27;20041;-84
2022/08/20 11:57:06;;;;;;;4.72;1.52;;;;;;;;;;5156201;27;20394;-83
2022/08/20 11:59:52;;;;;;;6.00;1.67;;;26.50;74.00;;;;;;5112301;27;20034;-83
2022/08/20 12:02:36;;;;;;;5.68;1.85;;;;;;;;;;5140132;27;20038;-84
2022/08/20 12:05:21;;;;;;;6.45;1.80;;;26.50;74.10;;;;;;5155374;27;20050;-83
2022/08/20 12:08:05;;;;;;;6.97;1.92;;;;;;;;;;5155681;27;20099;-84
2022/08/20 12:10:50;;;;;;;5.05;1.45;;;;;;;;;;5140089;27;20038;-84
2022/08/20 12:13:36;;;;;;;6.63;1.85;;;25.80;71.70;;;;;;5139570;27;20038;-84
2022/08/20 12:16:21;;;;;;;6.72;2.00;;;;;;;;;;5155135;27;20042;-84
2022/08/20 12:19:05;;;;;;;7.32;1.70;;;25.90;73.10;;;;;;5148588;27;20081;-83
2022/08/20 12:21:49;;;;;;;6.40;2.15;;;;;;;;;;5150877;27;20038;-84
2022/08/20 12:24:34;;;;;;;4.97;1.52;;;;;;;;;;5154972;27;20095;-82
2022/08/20 12:27:24;;;;;;;5.65;2.20;;;25.60;74.10;;;;;;5154956;27;20479;-84
2022/08/20 12:30:12;;;;;;;4.85;1.65;;;24.80;75.00;;;;;;5139788;27;20390;-83
2022/08/20 12:32:57;;;;;;;5.60;1.95;;;24.40;76.20;;;;;;5143780;27;20029;-83
2022/08/20 12:35:41;;;;;;;8.77;1.90;;;;;;;;;;5139466;27;20555;-82
2022/08/20 12:38:26;;;;;;;5.57;1.70;;;;;;;;;;5139235;27;20071;-83
2022/08/20 12:41:10;;;;;;;5.43;1.90;;;;;;;;;;5125827;27;20034;-84
2022/08/20 12:43:55;;;;;;;7.35;1.90;;;;;;;;;;5154716;27;20123;-83
2022/08/20 12:46:40;;;;;;;8.23;1.77;;;;;;;;;;5154878;27;20558;-83
2022/08/20 12:49:24;;;;;;;9.13;1.70;;;;;;;;;;5153729;27;20046;-84
2022/08/20 12:52:08;;;;;;;7.38;1.90;;;26.00;72.70;;;;;;5155122;27;20071;-83
2022/08/20 12:54:54;;;;;;;5.07;1.55;;;25.50;74.00;;;;;;5154990;27;20037;-84
2022/08/20 12:57:44;;;;;;;4.93;1.58;;;25.20;75.50;;;;;;5152003;27;20038;-84
2022/08/20 13:00:40;;;;;;;5.90;1.85;;;24.90;76.00;;;;;;5145905;27;20163;-83
2022/08/20 13:03:25;;;;;;;6.53;1.58;;;;;;;;;;5138693;27;20064;-83
2022/08/20 13:06:09;;;;;;;6.75;2.00;;;;;;;;;;5118378;27;20046;-84
2022/08/20 13:08:54;;;;;;;8.95;1.98;;;;;;;;;;5141504;27;20409;-84
2022/08/20 13:11:38;;;;;;;4.22;1.38;;;25.40;77.00;;;;;;5138356;27;20049;-84
2022/08/20 13:14:24;;;;;;;4.40;1.60;;;25.10;73.20;;;;;;5138513;27;20049;-84
2022/08/20 13:17:09;;;;;;;7.55;1.85;;;;;;;;;;5154349;27;20045;-83
2022/08/20 13:19:53;;;;;;;7.70;1.88;;;;;;;;;;5154855;27;20037;-84
2022/08/20 13:22:38;;;;;;;4.53;1.67;;;;;;;;;;5141789;27;20067;-83
2022/08/20 13:25:23;;;;;;;7.35;1.90;;;;;;;;;;5138280;27;20057;-84
2022/08/20 13:28:07;;;;;;;6.35;1.52;;;;;;;;;;5124618;27;20062;-83
2022/08/20 13:30:52;;;;;;;8.00;2.10;;;;;;;;;;5138616;27;20385;-83
2022/08/20 13:33:37;;;;;;;6.88;1.60;;;;;;;;;;5138064;27;20065;-84
2022/08/20 13:36:22;;;;;;;7.95;2.08;;;;;;;;;;5154151;27;20402;-87
2022/08/20 13:39:06;;;;;;;8.30;2.08;;;24.90;75.00;;;;;;5124006;27;20447;-83
2022/08/20 13:41:51;;;;;;;6.82;1.58;;;;;;;;;;5154280;27;20042;-83
2022/08/20 13:44:35;;;;;;;8.63;2.13;;;24.60;74.90;;;;;;5153909;27;20122;-83
2022/08/20 13:47:26;;;;;;;7.15;2.05;;;24.90;76.20;;;;;;5154335;27;20034;-85
2022/08/20 13:50:18;;;;;;;6.40;1.50;;;24.90;75.70;;;;;;5138331;27;20038;-83
2022/08/20 13:53:03;;;;;;;4.40;1.60;;;;;;;;;;5154228;27;20034;-83
2022/08/20 13:55:47;;;;;;;7.80;2.15;;;;;;;;;;5153476;27;20042;-84
2022/08/20 13:58:32;;;;;;;3.88;1.55;;;;;;;;;;5137841;27;20098;-83
2022/08/20 14:01:16;;;;;;;7.15;1.85;;;;;;;;;;5140978;27;20432;-83
2022/08/20 14:04:01;;;;;;;6.00;1.95;;;25.20;69.80;;;;;;5158216;27;20128;-84
2022/08/20 14:06:45;;;;;;;4.88;1.50;;;;;;;;;;5141788;27;20049;-84
2022/08/20 14:09:30;;;;;;;5.80;1.80;;;;;;;;;;5142189;27;20037;-84
2022/08/20 14:12:14;;;;;;;5.80;1.80;;;;;;;;;;5142483;27;20059;-83
2022/08/20 14:14:59;;;;;;;6.22;1.83;;;;;;;;;;5157909;27;20038;-83
2022/08/20 14:17:53;;;;;;;6.00;1.70;;;25.40;69.40;;;;;;5141914;27;20401;-83
2022/08/20 14:20:38;;;;;;;4.80;1.50;;;;;;;;;;5157257;27;20515;-84
2022/08/20 14:23:22;;;;;;;6.80;1.77;;;25.30;70.90;;;;;;5157631;27;20030;-85
2022/08/20 14:26:06;;;;;;;6.20;1.60;;;;;;;;;;5157998;27;20080;-83
2022/08/20 14:28:51;;;;;;;6.35;1.85;;;;;;;;;;5157239;27;20034;-84
2022/08/20 14:31:36;;;;;;;6.07;1.60;;;;;;;;;;5141467;27;20115;-85
2022/08/20 14:34:20;;;;;;;8.88;1.90;;;;;;;;;;5142012;27;20042;-83
2022/08/20 14:37:25;;;;;;;8.43;1.73;;;25.80;71.60;;;;;;5127532;27;20403;-83
2022/08/20 14:40:13;;;;;;;6.40;1.77;;;25.70;70.90;;;;;;5154018;27;20034;-84
2022/08/20 14:42:58;;;;;;;7.07;2.00;;;;;;;;;;5149571;27;20033;-83
2022/08/20 14:45:42;;;;;;;8.82;2.03;;;;;;;;;;5141192;27;20065;-84
2022/08/20 14:48:27;;;;;;;10.43;2.10;;;;;;;;;;5141581;27;20038;-84
2022/08/20 14:51:12;;;;;;;9.38;2.20;;;;;;;;;;5157500;27;20595;-83